logo
Search for airport 
image banner adimage banner adimage banner ad
image banner ad

OPKW - Kadanwari

Located in Kadanwari, Pakistan

ICAO - , IATA - KCF

Data provided by Airmate  

General information

Coordinates: N27°12'6" E69°9'7"
Elevation is 250 feet MSL.
Magnetic variation is 2° East
View others Airports in Sindh

Operational data

Special qualification required
Current time UTC:
Current local time:
METAR: OPSK 171600Z 18010KT 4000 HZ NSC 37/23 Q0998 NOSIG
TAF: TAF OPSK 171100Z 1712/1812 18007G17KT 5000 HZ NSC BECMG 1715/1717 18005KT 4000 HZ NSC FM180400 18010G20KT 6000 NSC
View NOTAMs / SUP AIP / TFR affecting this airport [VIEW]
Communications frequencies: [VIEW]

Runways:

RWY identifierQFULength (ft)Width (ft)SurfaceLDA (ft)
127874148ASPH
307874148ASPH

Airport contact information

Address: Kadanwari Pakistan

Satellite view of OPKW